sensor_id;sensor_type;location;lat;lon;timestamp;P1;durP1;ratioP1;P2;durP2;ratioP2
77085;SDS011;66014;53.134;18.006;2024-03-22T00:00:46;21.80;;;12.30;;
77085;SDS011;66014;53.134;18.006;2024-03-22T00:03:32;19.60;;;10.60;;
77085;SDS011;66014;53.134;18.006;2024-03-22T00:05:59;22.30;;;12.30;;
77085;SDS011;66014;53.134;18.006;2024-03-22T00:08:25;25.40;;;12.00;;
77085;SDS011;66014;53.134;18.006;2024-03-22T00:10:51;21.00;;;11.40;;
77085;SDS011;66014;53.134;18.006;2024-03-22T00:13:18;24.40;;;12.30;;
77085;SDS011;66014;53.134;18.006;2024-03-22T00:15:45;22.70;;;11.00;;
77085;SDS011;66014;53.134;18.006;2024-03-22T00:18:11;25.90;;;12.20;;
77085;SDS011;66014;53.134;18.006;2024-03-22T00:20:38;26.70;;;12.70;;
77085;SDS011;66014;53.134;18.006;2024-03-22T00:23:04;25.70;;;12.30;;
77085;SDS011;66014;53.134;18.006;2024-03-22T00:25:31;22.60;;;11.80;;
77085;SDS011;66014;53.134;18.006;2024-03-22T00:27:58;24.70;;;11.70;;
77085;SDS011;66014;53.134;18.006;2024-03-22T00:30:24;25.50;;;13.60;;
77085;SDS011;66014;53.134;18.006;2024-03-22T00:32:51;25.60;;;12.80;;
77085;SDS011;66014;53.134;18.006;2024-03-22T00:35:17;25.80;;;13.50;;
77085;SDS011;66014;53.134;18.006;2024-03-22T00:37:43;21.00;;;11.30;;
77085;SDS011;66014;53.134;18.006;2024-03-22T00:40:10;23.40;;;12.50;;
77085;SDS011;66014;53.134;18.006;2024-03-22T00:42:36;26.30;;;13.50;;
77085;SDS011;66014;53.134;18.006;2024-03-22T00:45:03;25.90;;;13.30;;
77085;SDS011;66014;53.134;18.006;2024-03-22T00:47:29;27.70;;;13.10;;
77085;SDS011;66014;53.134;18.006;2024-03-22T00:49:56;26.50;;;12.40;;
77085;SDS011;66014;53.134;18.006;2024-03-22T00:52:22;25.30;;;12.60;;
77085;SDS011;66014;53.134;18.006;2024-03-22T00:54:51;31.40;;;13.50;;
77085;SDS011;66014;53.134;18.006;2024-03-22T00:57:17;27.50;;;13.40;;
77085;SDS011;66014;53.134;18.006;2024-03-22T00:59:43;28.00;;;13.20;;
77085;SDS011;66014;53.134;18.006;2024-03-22T01:02:10;27.50;;;13.40;;
77085;SDS011;66014;53.134;18.006;2024-03-22T01:04:36;25.30;;;12.50;;
77085;SDS011;66014;53.134;18.006;2024-03-22T01:07:02;27.20;;;13.00;;
77085;SDS011;66014;53.134;18.006;2024-03-22T01:09:30;30.30;;;14.20;;
77085;SDS011;66014;53.134;18.006;2024-03-22T01:11:57;34.40;;;14.80;;
77085;SDS011;66014;53.134;18.006;2024-03-22T01:14:24;30.10;;;12.90;;
77085;SDS011;66014;53.134;18.006;2024-03-22T01:16:50;33.00;;;14.70;;
77085;SDS011;66014;53.134;18.006;2024-03-22T01:19:16;34.20;;;14.00;;
77085;SDS011;66014;53.134;18.006;2024-03-22T01:21:43;30.20;;;14.30;;
77085;SDS011;66014;53.134;18.006;2024-03-22T01:24:09;34.30;;;15.10;;
77085;SDS011;66014;53.134;18.006;2024-03-22T01:26:36;32.10;;;15.70;;
77085;SDS011;66014;53.134;18.006;2024-03-22T01:29:02;33.90;;;15.70;;
77085;SDS011;66014;53.134;18.006;2024-03-22T01:31:28;35.10;;;15.20;;
77085;SDS011;66014;53.134;18.006;2024-03-22T01:33:55;35.80;;;16.10;;
77085;SDS011;66014;53.134;18.006;2024-03-22T01:36:21;42.20;;;20.30;;
77085;SDS011;66014;53.134;18.006;2024-03-22T01:38:47;39.50;;;17.10;;
77085;SDS011;66014;53.134;18.006;2024-03-22T01:41:14;36.30;;;16.80;;
77085;SDS011;66014;53.134;18.006;2024-03-22T01:43:40;36.90;;;15.30;;
77085;SDS011;66014;53.134;18.006;2024-03-22T01:46:07;50.20;;;21.00;;
77085;SDS011;66014;53.134;18.006;2024-03-22T01:48:34;41.30;;;17.90;;
77085;SDS011;66014;53.134;18.006;2024-03-22T01:51:01;41.30;;;17.90;;
77085;SDS011;66014;53.134;18.006;2024-03-22T01:53:28;42.00;;;17.00;;
77085;SDS011;66014;53.134;18.006;2024-03-22T01:55:54;43.10;;;17.20;;
77085;SDS011;66014;53.134;18.006;2024-03-22T01:58:21;41.70;;;16.50;;
77085;SDS011;66014;53.134;18.006;2024-03-22T02:00:50;40.90;;;18.10;;
77085;SDS011;66014;53.134;18.006;2024-03-22T02:03:16;46.10;;;17.30;;
77085;SDS011;66014;53.134;18.006;2024-03-22T02:05:42;44.30;;;19.50;;
77085;SDS011;66014;53.134;18.006;2024-03-22T02:08:09;46.90;;;19.10;;
77085;SDS011;66014;53.134;18.006;2024-03-22T02:10:37;48.00;;;19.50;;
77085;SDS011;66014;53.134;18.006;2024-03-22T02:13:03;48.50;;;18.40;;
77085;SDS011;66014;53.134;18.006;2024-03-22T02:15:30;44.80;;;18.10;;
77085;SDS011;66014;53.134;18.006;2024-03-22T02:17:56;47.70;;;18.70;;
77085;SDS011;66014;53.134;18.006;2024-03-22T02:20:22;43.30;;;18.60;;
77085;SDS011;66014;53.134;18.006;2024-03-22T02:22:49;45.40;;;18.00;;
77085;SDS011;66014;53.134;18.006;2024-03-22T02:25:15;47.30;;;18.60;;
77085;SDS011;66014;53.134;18.006;2024-03-22T02:27:42;40.10;;;17.00;;
77085;SDS011;66014;53.134;18.006;2024-03-22T02:30:09;48.50;;;18.50;;
77085;SDS011;66014;53.134;18.006;2024-03-22T02:32:35;45.80;;;19.10;;
77085;SDS011;66014;53.134;18.006;2024-03-22T02:35:03;43.60;;;17.30;;
77085;SDS011;66014;53.134;18.006;2024-03-22T02:37:29;41.60;;;16.60;;
77085;SDS011;66014;53.134;18.006;2024-03-22T02:39:56;40.30;;;17.40;;
77085;SDS011;66014;53.134;18.006;2024-03-22T02:42:22;41.70;;;16.70;;
77085;SDS011;66014;53.134;18.006;2024-03-22T02:44:48;43.90;;;18.40;;
77085;SDS011;66014;53.134;18.006;2024-03-22T02:47:15;44.40;;;17.70;;
77085;SDS011;66014;53.134;18.006;2024-03-22T02:49:41;41.60;;;17.60;;
77085;SDS011;66014;53.134;18.006;2024-03-22T02:52:08;43.40;;;17.80;;
77085;SDS011;66014;53.134;18.006;2024-03-22T02:54:34;37.70;;;15.50;;
77085;SDS011;66014;53.134;18.006;2024-03-22T02:57:00;41.10;;;17.30;;
77085;SDS011;66014;53.134;18.006;2024-03-22T02:59:28;35.80;;;15.00;;
77085;SDS011;66014;53.134;18.006;2024-03-22T03:01:55;38.50;;;16.30;;
77085;SDS011;66014;53.134;18.006;2024-03-22T03:04:21;33.80;;;15.20;;
77085;SDS011;66014;53.134;18.006;2024-03-22T03:06:47;37.00;;;15.60;;
77085;SDS011;66014;53.134;18.006;2024-03-22T03:09:14;35.40;;;15.70;;
77085;SDS011;66014;53.134;18.006;2024-03-22T03:11:41;43.00;;;16.10;;
77085;SDS011;66014;53.134;18.006;2024-03-22T03:14:07;39.70;;;15.90;;
77085;SDS011;66014;53.134;18.006;2024-03-22T03:16:33;40.40;;;15.40;;
77085;SDS011;66014;53.134;18.006;2024-03-22T03:19:00;42.30;;;16.40;;
77085;SDS011;66014;53.134;18.006;2024-03-22T03:21:26;34.20;;;15.10;;
77085;SDS011;66014;53.134;18.006;2024-03-22T03:23:52;38.70;;;15.80;;
77085;SDS011;66014;53.134;18.006;2024-03-22T03:26:19;50.50;;;17.60;;
77085;SDS011;66014;53.134;18.006;2024-03-22T03:28:45;44.90;;;17.50;;
77085;SDS011;66014;53.134;18.006;2024-03-22T03:31:13;53.60;;;18.50;;
77085;SDS011;66014;53.134;18.006;2024-03-22T03:33:40;49.10;;;17.80;;
77085;SDS011;66014;53.134;18.006;2024-03-22T03:36:07;49.10;;;18.20;;
77085;SDS011;66014;53.134;18.006;2024-03-22T03:38:33;51.30;;;20.20;;
77085;SDS011;66014;53.134;18.006;2024-03-22T03:40:59;62.70;;;23.10;;
77085;SDS011;66014;53.134;18.006;2024-03-22T03:43:26;49.30;;;19.30;;
77085;SDS011;66014;53.134;18.006;2024-03-22T03:45:52;46.90;;;19.90;;
77085;SDS011;66014;53.134;18.006;2024-03-22T03:48:20;53.70;;;20.60;;
77085;SDS011;66014;53.134;18.006;2024-03-22T03:50:53;48.10;;;19.00;;
77085;SDS011;66014;53.134;18.006;2024-03-22T03:53:21;71.30;;;26.10;;
77085;SDS011;66014;53.134;18.006;2024-03-22T03:55:47;55.90;;;20.60;;
77085;SDS011;66014;53.134;18.006;2024-03-22T03:58:14;47.70;;;20.10;;
77085;SDS011;66014;53.134;18.006;2024-03-22T04:00:40;43.10;;;17.00;;
77085;SDS011;66014;53.134;18.006;2024-03-22T04:03:06;37.70;;;15.80;;
77085;SDS011;66014;53.134;18.006;2024-03-22T04:05:33;38.10;;;16.10;;
77085;SDS011;66014;53.134;18.006;2024-03-22T04:07:59;34.90;;;15.50;;
77085;SDS011;66014;53.134;18.006;2024-03-22T04:10:26;36.60;;;15.60;;
77085;SDS011;66014;53.134;18.006;2024-03-22T04:12:52;39.40;;;16.90;;
77085;SDS011;66014;53.134;18.006;2024-03-22T04:15:18;30.70;;;14.20;;
77085;SDS011;66014;53.134;18.006;2024-03-22T04:17:45;39.40;;;16.40;;
77085;SDS011;66014;53.134;18.006;2024-03-22T04:20:11;41.20;;;16.90;;
77085;SDS011;66014;53.134;18.006;2024-03-22T04:22:38;35.40;;;14.50;;
77085;SDS011;66014;53.134;18.006;2024-03-22T04:25:04;36.00;;;14.10;;
77085;SDS011;66014;53.134;18.006;2024-03-22T04:27:31;34.00;;;14.00;;
77085;SDS011;66014;53.134;18.006;2024-03-22T04:29:57;30.90;;;12.90;;
77085;SDS011;66014;53.134;18.006;2024-03-22T04:32:24;33.50;;;14.20;;
77085;SDS011;66014;53.134;18.006;2024-03-22T04:34:50;35.40;;;15.20;;
77085;SDS011;66014;53.134;18.006;2024-03-22T04:37:17;39.50;;;15.20;;
77085;SDS011;66014;53.134;18.006;2024-03-22T04:39:45;36.70;;;16.20;;
77085;SDS011;66014;53.134;18.006;2024-03-22T04:42:12;35.60;;;15.40;;
77085;SDS011;66014;53.134;18.006;2024-03-22T04:44:38;28.70;;;13.30;;
77085;SDS011;66014;53.134;18.006;2024-03-22T04:47:04;31.40;;;14.00;;
77085;SDS011;66014;53.134;18.006;2024-03-22T04:49:31;34.80;;;16.40;;
77085;SDS011;66014;53.134;18.006;2024-03-22T04:51:57;36.70;;;16.00;;
77085;SDS011;66014;53.134;18.006;2024-03-22T04:54:24;33.10;;;14.80;;
77085;SDS011;66014;53.134;18.006;2024-03-22T04:56:50;28.80;;;13.40;;
77085;SDS011;66014;53.134;18.006;2024-03-22T04:59:16;27.80;;;13.00;;
77085;SDS011;66014;53.134;18.006;2024-03-22T05:01:43;27.50;;;12.00;;
77085;SDS011;66014;53.134;18.006;2024-03-22T05:04:10;33.40;;;12.90;;
77085;SDS011;66014;53.134;18.006;2024-03-22T05:06:36;27.30;;;11.90;;
77085;SDS011;66014;53.134;18.006;2024-03-22T05:09:03;29.10;;;12.80;;
77085;SDS011;66014;53.134;18.006;2024-03-22T05:11:32;26.40;;;11.90;;
77085;SDS011;66014;53.134;18.006;2024-03-22T05:13:58;27.20;;;11.50;;
77085;SDS011;66014;53.134;18.006;2024-03-22T05:16:24;26.50;;;11.90;;
77085;SDS011;66014;53.134;18.006;2024-03-22T05:18:51;27.80;;;11.20;;
77085;SDS011;66014;53.134;18.006;2024-03-22T05:21:20;20.60;;;9.10;;
77085;SDS011;66014;53.134;18.006;2024-03-22T05:23:46;28.30;;;11.20;;
77085;SDS011;66014;53.134;18.006;2024-03-22T05:26:12;27.40;;;11.50;;
77085;SDS011;66014;53.134;18.006;2024-03-22T05:28:39;26.80;;;10.10;;
77085;SDS011;66014;53.134;18.006;2024-03-22T05:31:05;26.90;;;11.50;;
77085;SDS011;66014;53.134;18.006;2024-03-22T05:33:31;18.50;;;7.70;;
77085;SDS011;66014;53.134;18.006;2024-03-22T05:35:58;20.50;;;9.20;;
77085;SDS011;66014;53.134;18.006;2024-03-22T05:38:25;21.10;;;9.30;;
77085;SDS011;66014;53.134;18.006;2024-03-22T05:40:52;26.80;;;12.30;;
77085;SDS011;66014;53.134;18.006;2024-03-22T05:43:19;20.60;;;9.60;;
77085;SDS011;66014;53.134;18.006;2024-03-22T05:45:46;21.50;;;9.50;;
77085;SDS011;66014;53.134;18.006;2024-03-22T05:48:12;21.70;;;8.70;;
77085;SDS011;66014;53.134;18.006;2024-03-22T05:50:40;18.60;;;8.50;;
77085;SDS011;66014;53.134;18.006;2024-03-22T05:53:07;21.80;;;9.60;;
77085;SDS011;66014;53.134;18.006;2024-03-22T05:55:33;18.40;;;8.00;;
77085;SDS011;66014;53.134;18.006;2024-03-22T05:57:59;21.40;;;9.30;;
77085;SDS011;66014;53.134;18.006;2024-03-22T06:00:27;21.80;;;10.60;;
77085;SDS011;66014;53.134;18.006;2024-03-22T06:02:54;18.80;;;8.80;;
77085;SDS011;66014;53.134;18.006;2024-03-22T06:05:20;24.00;;;9.10;;
77085;SDS011;66014;53.134;18.006;2024-03-22T06:07:47;21.80;;;9.10;;
77085;SDS011;66014;53.134;18.006;2024-03-22T06:10:14;22.80;;;10.30;;
77085;SDS011;66014;53.134;18.006;2024-03-22T06:12:40;20.60;;;8.90;;
77085;SDS011;66014;53.134;18.006;2024-03-22T06:15:07;22.90;;;9.40;;
77085;SDS011;66014;53.134;18.006;2024-03-22T06:17:33;24.90;;;10.40;;
77085;SDS011;66014;53.134;18.006;2024-03-22T06:20:00;29.20;;;13.00;;
77085;SDS011;66014;53.134;18.006;2024-03-22T06:22:27;24.30;;;9.50;;
77085;SDS011;66014;53.134;18.006;2024-03-22T06:24:53;25.30;;;10.30;;
77085;SDS011;66014;53.134;18.006;2024-03-22T06:27:19;20.90;;;9.20;;
77085;SDS011;66014;53.134;18.006;2024-03-22T06:29:46;24.00;;;9.20;;
77085;SDS011;66014;53.134;18.006;2024-03-22T06:32:12;21.50;;;7.90;;
77085;SDS011;66014;53.134;18.006;2024-03-22T06:34:38;27.10;;;10.30;;
77085;SDS011;66014;53.134;18.006;2024-03-22T06:37:05;22.10;;;10.00;;
77085;SDS011;66014;53.134;18.006;2024-03-22T06:39:32;20.00;;;7.90;;
77085;SDS011;66014;53.134;18.006;2024-03-22T06:41:59;19.50;;;8.90;;
77085;SDS011;66014;53.134;18.006;2024-03-22T06:44:25;22.10;;;8.90;;
77085;SDS011;66014;53.134;18.006;2024-03-22T06:46:51;28.10;;;12.10;;
77085;SDS011;66014;53.134;18.006;2024-03-22T06:49:18;22.80;;;10.10;;
77085;SDS011;66014;53.134;18.006;2024-03-22T06:51:44;23.30;;;9.70;;
77085;SDS011;66014;53.134;18.006;2024-03-22T06:54:11;20.40;;;9.60;;
77085;SDS011;66014;53.134;18.006;2024-03-22T06:56:37;21.30;;;8.50;;
77085;SDS011;66014;53.134;18.006;2024-03-22T06:59:04;24.70;;;10.10;;
77085;SDS011;66014;53.134;18.006;2024-03-22T07:01:30;20.80;;;9.80;;
77085;SDS011;66014;53.134;18.006;2024-03-22T07:03:56;26.50;;;11.50;;
77085;SDS011;66014;53.134;18.006;2024-03-22T07:06:23;20.90;;;9.50;;
77085;SDS011;66014;53.134;18.006;2024-03-22T07:08:49;20.80;;;9.80;;
77085;SDS011;66014;53.134;18.006;2024-03-22T07:11:16;20.30;;;10.50;;
77085;SDS011;66014;53.134;18.006;2024-03-22T07:13:43;19.20;;;8.30;;
77085;SDS011;66014;53.134;18.006;2024-03-22T07:16:09;17.70;;;8.60;;
77085;SDS011;66014;53.134;18.006;2024-03-22T07:18:36;17.20;;;8.00;;
77085;SDS011;66014;53.134;18.006;2024-03-22T07:21:02;23.40;;;9.40;;
77085;SDS011;66014;53.134;18.006;2024-03-22T07:23:30;19.90;;;8.90;;
77085;SDS011;66014;53.134;18.006;2024-03-22T07:25:56;17.30;;;8.10;;
77085;SDS011;66014;53.134;18.006;2024-03-22T07:28:22;19.10;;;8.00;;
77085;SDS011;66014;53.134;18.006;2024-03-22T07:30:49;16.80;;;7.80;;
77085;SDS011;66014;53.134;18.006;2024-03-22T07:33:15;18.20;;;9.20;;
77085;SDS011;66014;53.134;18.006;2024-03-22T07:35:44;18.70;;;8.40;;
77085;SDS011;66014;53.134;18.006;2024-03-22T07:38:10;21.90;;;9.20;;
77085;SDS011;66014;53.134;18.006;2024-03-22T07:40:36;20.90;;;8.50;;
77085;SDS011;66014;53.134;18.006;2024-03-22T07:43:03;26.10;;;9.10;;
77085;SDS011;66014;53.134;18.006;2024-03-22T07:45:35;22.50;;;9.90;;
77085;SDS011;66014;53.134;18.006;2024-03-22T07:48:01;24.90;;;9.50;;
77085;SDS011;66014;53.134;18.006;2024-03-22T07:50:28;30.50;;;11.90;;
77085;SDS011;66014;53.134;18.006;2024-03-22T07:52:54;23.30;;;10.60;;
77085;SDS011;66014;53.134;18.006;2024-03-22T07:55:22;23.40;;;9.00;;
77085;SDS011;66014;53.134;18.006;2024-03-22T07:57:49;19.40;;;9.50;;
77085;SDS011;66014;53.134;18.006;2024-03-22T08:00:15;22.80;;;9.50;;
77085;SDS011;66014;53.134;18.006;2024-03-22T08:02:42;20.50;;;8.50;;
77085;SDS011;66014;53.134;18.006;2024-03-22T08:05:08;22.50;;;10.30;;
77085;SDS011;66014;53.134;18.006;2024-03-22T08:07:35;23.80;;;10.70;;
77085;SDS011;66014;53.134;18.006;2024-03-22T08:10:01;18.90;;;9.00;;
77085;SDS011;66014;53.134;18.006;2024-03-22T08:12:28;18.40;;;9.60;;
77085;SDS011;66014;53.134;18.006;2024-03-22T08:14:54;23.20;;;9.90;;
77085;SDS011;66014;53.134;18.006;2024-03-22T08:17:21;16.90;;;8.00;;
77085;SDS011;66014;53.134;18.006;2024-03-22T08:19:48;33.50;;;17.50;;
77085;SDS011;66014;53.134;18.006;2024-03-22T08:22:14;24.60;;;12.80;;
77085;SDS011;66014;53.134;18.006;2024-03-22T08:24:40;20.00;;;9.00;;
77085;SDS011;66014;53.134;18.006;2024-03-22T08:27:07;21.10;;;9.20;;
77085;SDS011;66014;53.134;18.006;2024-03-22T08:29:33;21.90;;;8.60;;
77085;SDS011;66014;53.134;18.006;2024-03-22T08:32:00;19.50;;;8.60;;
77085;SDS011;66014;53.134;18.006;2024-03-22T08:34:29;18.90;;;8.50;;
77085;SDS011;66014;53.134;18.006;2024-03-22T08:36:55;22.40;;;11.50;;
77085;SDS011;66014;53.134;18.006;2024-03-22T08:39:21;24.80;;;14.50;;
77085;SDS011;66014;53.134;18.006;2024-03-22T08:41:48;20.00;;;9.40;;
77085;SDS011;66014;53.134;18.006;2024-03-22T08:44:15;22.00;;;11.20;;
77085;SDS011;66014;53.134;18.006;2024-03-22T08:46:41;25.00;;;11.40;;
77085;SDS011;66014;53.134;18.006;2024-03-22T08:49:07;30.90;;;15.80;;
77085;SDS011;66014;53.134;18.006;2024-03-22T08:51:34;23.80;;;11.70;;
77085;SDS011;66014;53.134;18.006;2024-03-22T08:54:00;19.30;;;10.00;;
77085;SDS011;66014;53.134;18.006;2024-03-22T08:56:27;18.80;;;9.10;;
77085;SDS011;66014;53.134;18.006;2024-03-22T08:58:53;18.30;;;8.90;;
77085;SDS011;66014;53.134;18.006;2024-03-22T09:01:19;18.80;;;9.40;;
77085;SDS011;66014;53.134;18.006;2024-03-22T09:03:45;23.00;;;12.50;;
77085;SDS011;66014;53.134;18.006;2024-03-22T09:06:12;23.40;;;12.50;;
77085;SDS011;66014;53.134;18.006;2024-03-22T09:08:39;27.50;;;14.10;;
77085;SDS011;66014;53.134;18.006;2024-03-22T09:11:05;18.00;;;9.60;;
77085;SDS011;66014;53.134;18.006;2024-03-22T09:13:31;36.60;;;19.30;;
77085;SDS011;66014;53.134;18.006;2024-03-22T09:16:00;27.30;;;12.60;;
77085;SDS011;66014;53.134;18.006;2024-03-22T09:18:28;35.80;;;16.00;;
77085;SDS011;66014;53.134;18.006;2024-03-22T09:20:55;24.70;;;12.30;;
77085;SDS011;66014;53.134;18.006;2024-03-22T09:23:22;30.30;;;14.70;;
77085;SDS011;66014;53.134;18.006;2024-03-22T09:25:49;31.20;;;15.60;;
77085;SDS011;66014;53.134;18.006;2024-03-22T09:28:15;24.90;;;10.40;;
77085;SDS011;66014;53.134;18.006;2024-03-22T09:30:42;22.30;;;11.30;;
77085;SDS011;66014;53.134;18.006;2024-03-22T09:33:09;17.90;;;10.00;;
77085;SDS011;66014;53.134;18.006;2024-03-22T09:35:35;21.20;;;10.00;;
77085;SDS011;66014;53.134;18.006;2024-03-22T09:38:02;24.20;;;11.40;;
77085;SDS011;66014;53.134;18.006;2024-03-22T09:40:28;24.10;;;14.60;;
77085;SDS011;66014;53.134;18.006;2024-03-22T09:42:56;22.40;;;12.40;;
77085;SDS011;66014;53.134;18.006;2024-03-22T09:45:28;21.10;;;11.00;;
77085;SDS011;66014;53.134;18.006;2024-03-22T09:47:57;21.20;;;9.30;;
77085;SDS011;66014;53.134;18.006;2024-03-22T09:50:24;23.30;;;11.10;;
77085;SDS011;66014;53.134;18.006;2024-03-22T09:52:53;23.20;;;11.50;;
77085;SDS011;66014;53.134;18.006;2024-03-22T09:55:22;25.40;;;11.80;;
77085;SDS011;66014;53.134;18.006;2024-03-22T09:57:50;22.40;;;11.20;;
77085;SDS011;66014;53.134;18.006;2024-03-22T10:00:18;19.80;;;10.40;;
77085;SDS011;66014;53.134;18.006;2024-03-22T10:02:46;18.20;;;10.20;;
77085;SDS011;66014;53.134;18.006;2024-03-22T10:05:13;20.30;;;9.20;;
77085;SDS011;66014;53.134;18.006;2024-03-22T10:07:40;23.40;;;12.20;;
77085;SDS011;66014;53.134;18.006;2024-03-22T10:10:07;19.20;;;10.40;;
77085;SDS011;66014;53.134;18.006;2024-03-22T10:12:34;22.90;;;11.70;;
77085;SDS011;66014;53.134;18.006;2024-03-22T10:15:02;22.80;;;9.70;;
77085;SDS011;66014;53.134;18.006;2024-03-22T10:17:29;18.70;;;9.30;;
77085;SDS011;66014;53.134;18.006;2024-03-22T10:19:55;16.60;;;8.30;;
77085;SDS011;66014;53.134;18.006;2024-03-22T10:22:22;21.00;;;10.70;;
77085;SDS011;66014;53.134;18.006;2024-03-22T10:24:50;22.20;;;12.20;;
77085;SDS011;66014;53.134;18.006;2024-03-22T10:27:18;19.50;;;10.00;;
77085;SDS011;66014;53.134;18.006;2024-03-22T10:29:45;20.40;;;11.00;;
77085;SDS011;66014;53.134;18.006;2024-03-22T10:32:12;17.00;;;9.30;;
77085;SDS011;66014;53.134;18.006;2024-03-22T10:34:39;19.80;;;10.30;;
77085;SDS011;66014;53.134;18.006;2024-03-22T10:37:08;19.90;;;11.10;;
77085;SDS011;66014;53.134;18.006;2024-03-22T10:39:35;24.00;;;11.30;;
77085;SDS011;66014;53.134;18.006;2024-03-22T10:42:04;18.90;;;9.50;;
77085;SDS011;66014;53.134;18.006;2024-03-22T10:44:31;20.20;;;11.10;;
77085;SDS011;66014;53.134;18.006;2024-03-22T10:46:57;18.70;;;10.40;;
77085;SDS011;66014;53.134;18.006;2024-03-22T10:49:27;18.10;;;9.50;;
77085;SDS011;66014;53.134;18.006;2024-03-22T10:51:59;20.90;;;10.50;;
77085;SDS011;66014;53.134;18.006;2024-03-22T10:54:30;21.20;;;10.90;;
77085;SDS011;66014;53.134;18.006;2024-03-22T10:57:01;21.30;;;11.70;;
77085;SDS011;66014;53.134;18.006;2024-03-22T10:59:27;18.00;;;9.20;;
77085;SDS011;66014;53.134;18.006;2024-03-22T11:02:02;16.40;;;7.80;;
77085;SDS011;66014;53.134;18.006;2024-03-22T11:04:30;19.90;;;9.50;;
77085;SDS011;66014;53.134;18.006;2024-03-22T11:06:56;20.30;;;10.10;;
77085;SDS011;66014;53.134;18.006;2024-03-22T11:09:25;20.50;;;9.50;;
77085;SDS011;66014;53.134;18.006;2024-03-22T11:11:53;22.00;;;10.70;;
77085;SDS011;66014;53.134;18.006;2024-03-22T11:14:22;21.70;;;10.60;;
77085;SDS011;66014;53.134;18.006;2024-03-22T11:16:52;18.60;;;8.20;;
77085;SDS011;66014;53.134;18.006;2024-03-22T11:19:21;21.30;;;8.90;;
77085;SDS011;66014;53.134;18.006;2024-03-22T11:21:48;17.20;;;8.30;;
77085;SDS011;66014;53.134;18.006;2024-03-22T11:24:15;16.30;;;8.00;;
77085;SDS011;66014;53.134;18.006;2024-03-22T11:26:41;16.00;;;7.60;;
77085;SDS011;66014;53.134;18.006;2024-03-22T11:29:10;19.30;;;8.90;;
77085;SDS011;66014;53.134;18.006;2024-03-22T11:31:36;18.10;;;8.60;;
77085;SDS011;66014;53.134;18.006;2024-03-22T11:34:03;17.20;;;8.50;;
77085;SDS011;66014;53.134;18.006;2024-03-22T11:36:30;23.80;;;10.00;;
77085;SDS011;66014;53.134;18.006;2024-03-22T11:38:56;19.30;;;8.80;;
77085;SDS011;66014;53.134;18.006;2024-03-22T11:41:28;18.80;;;9.40;;
77085;SDS011;66014;53.134;18.006;2024-03-22T11:43:56;26.30;;;11.80;;
77085;SDS011;66014;53.134;18.006;2024-03-22T11:46:24;20.30;;;10.00;;
77085;SDS011;66014;53.134;18.006;2024-03-22T11:48:54;20.80;;;11.10;;
77085;SDS011;66014;53.134;18.006;2024-03-22T11:51:22;19.60;;;10.50;;
77085;SDS011;66014;53.134;18.006;2024-03-22T11:53:49;21.70;;;10.80;;
77085;SDS011;66014;53.134;18.006;2024-03-22T11:56:20;26.40;;;14.10;;
77085;SDS011;66014;53.134;18.006;2024-03-22T11:58:47;27.90;;;14.10;;
77085;SDS011;66014;53.134;18.006;2024-03-22T12:01:17;23.60;;;11.50;;
77085;SDS011;66014;53.134;18.006;2024-03-22T12:03:46;23.80;;;12.70;;
77085;SDS011;66014;53.134;18.006;2024-03-22T12:06:14;25.10;;;13.60;;
77085;SDS011;66014;53.134;18.006;2024-03-22T12:08:41;26.90;;;13.40;;
77085;SDS011;66014;53.134;18.006;2024-03-22T12:11:08;25.40;;;14.30;;
77085;SDS011;66014;53.134;18.006;2024-03-22T12:13:34;32.00;;;14.80;;
77085;SDS011;66014;53.134;18.006;2024-03-22T12:16:01;26.30;;;13.90;;
77085;SDS011;66014;53.134;18.006;2024-03-22T12:18:29;32.50;;;15.60;;
77085;SDS011;66014;53.134;18.006;2024-03-22T12:20:56;27.30;;;13.80;;
77085;SDS011;66014;53.134;18.006;2024-03-22T12:23:24;28.20;;;12.90;;
77085;SDS011;66014;53.134;18.006;2024-03-22T12:25:50;27.20;;;13.80;;
77085;SDS011;66014;53.134;18.006;2024-03-22T12:28:18;25.80;;;12.00;;
77085;SDS011;66014;53.134;18.006;2024-03-22T12:30:44;25.60;;;13.50;;
77085;SDS011;66014;53.134;18.006;2024-03-22T12:33:12;26.00;;;13.20;;
77085;SDS011;66014;53.134;18.006;2024-03-22T12:35:39;36.30;;;17.20;;
77085;SDS011;66014;53.134;18.006;2024-03-22T12:38:08;28.80;;;14.10;;
77085;SDS011;66014;53.134;18.006;2024-03-22T12:40:37;27.40;;;15.60;;
77085;SDS011;66014;53.134;18.006;2024-03-22T12:43:04;32.80;;;19.10;;
77085;SDS011;66014;53.134;18.006;2024-03-22T12:45:32;28.40;;;17.20;;
77085;SDS011;66014;53.134;18.006;2024-03-22T12:47:58;26.60;;;14.50;;
77085;SDS011;66014;53.134;18.006;2024-03-22T12:50:26;21.50;;;12.40;;
77085;SDS011;66014;53.134;18.006;2024-03-22T12:52:52;23.00;;;11.80;;
77085;SDS011;66014;53.134;18.006;2024-03-22T12:55:19;22.30;;;12.00;;
77085;SDS011;66014;53.134;18.006;2024-03-22T12:57:45;21.80;;;13.70;;
77085;SDS011;66014;53.134;18.006;2024-03-22T13:00:14;19.50;;;9.40;;
77085;SDS011;66014;53.134;18.006;2024-03-22T13:02:44;21.40;;;11.20;;
77085;SDS011;66014;53.134;18.006;2024-03-22T13:05:11;39.30;;;20.30;;
77085;SDS011;66014;53.134;18.006;2024-03-22T13:07:38;27.00;;;12.90;;
77085;SDS011;66014;53.134;18.006;2024-03-22T13:10:05;20.70;;;10.60;;
77085;SDS011;66014;53.134;18.006;2024-03-22T13:12:33;23.40;;;12.20;;
77085;SDS011;66014;53.134;18.006;2024-03-22T13:15:00;22.50;;;11.20;;
77085;SDS011;66014;53.134;18.006;2024-03-22T13:17:28;21.60;;;11.50;;
77085;SDS011;66014;53.134;18.006;2024-03-22T13:19:54;34.10;;;14.90;;
77085;SDS011;66014;53.134;18.006;2024-03-22T13:22:20;22.90;;;11.70;;
77085;SDS011;66014;53.134;18.006;2024-03-22T13:24:47;20.90;;;11.20;;
77085;SDS011;66014;53.134;18.006;2024-03-22T13:27:16;22.50;;;11.70;;
77085;SDS011;66014;53.134;18.006;2024-03-22T13:29:43;20.90;;;10.80;;
77085;SDS011;66014;53.134;18.006;2024-03-22T13:32:10;22.20;;;10.70;;
77085;SDS011;66014;53.134;18.006;2024-03-22T13:34:39;18.90;;;10.20;;
77085;SDS011;66014;53.134;18.006;2024-03-22T13:37:05;24.50;;;11.40;;
77085;SDS011;66014;53.134;18.006;2024-03-22T13:39:32;18.00;;;9.40;;
77085;SDS011;66014;53.134;18.006;2024-03-22T13:41:58;22.60;;;10.00;;
77085;SDS011;66014;53.134;18.006;2024-03-22T13:44:25;21.10;;;9.80;;
77085;SDS011;66014;53.134;18.006;2024-03-22T13:46:51;21.10;;;10.60;;
77085;SDS011;66014;53.134;18.006;2024-03-22T13:49:18;22.10;;;10.90;;
77085;SDS011;66014;53.134;18.006;2024-03-22T13:51:47;28.80;;;12.20;;
77085;SDS011;66014;53.134;18.006;2024-03-22T13:54:14;19.60;;;10.70;;
77085;SDS011;66014;53.134;18.006;2024-03-22T13:56:40;22.00;;;11.30;;
77085;SDS011;66014;53.134;18.006;2024-03-22T13:59:07;34.60;;;14.80;;
77085;SDS011;66014;53.134;18.006;2024-03-22T14:01:35;25.30;;;12.50;;
77085;SDS011;66014;53.134;18.006;2024-03-22T14:04:04;34.80;;;13.00;;
77085;SDS011;66014;53.134;18.006;2024-03-22T14:06:31;22.70;;;10.90;;
77085;SDS011;66014;53.134;18.006;2024-03-22T14:08:59;22.00;;;11.30;;